createdAt,value
2022-12-12T00:01:31.938Z,25.67
2022-12-12T00:04:00.444Z,23.20
2022-12-12T00:06:30.209Z,24.50
2022-12-12T00:08:58.247Z,27.13
2022-12-12T00:11:27.535Z,25.07
2022-12-12T00:13:55.863Z,25.63
2022-12-12T00:16:24.224Z,25.07
2022-12-12T00:18:52.341Z,26.47
2022-12-12T00:21:23.796Z,25.03
2022-12-12T00:23:53.684Z,27.10
2022-12-12T00:26:23.819Z,29.77
2022-12-12T00:28:52.268Z,29.23
2022-12-12T00:31:23.059Z,27.20
2022-12-12T00:33:51.528Z,32.97
2022-12-12T00:36:21.744Z,30.50
2022-12-12T00:38:50.078Z,28.87
2022-12-12T00:41:19.648Z,33.37
2022-12-12T00:43:47.682Z,30.10
2022-12-12T00:46:17.159Z,32.13
2022-12-12T00:48:45.462Z,31.93
2022-12-12T00:51:19.456Z,34.00
2022-12-12T00:53:48.174Z,31.37
2022-12-12T00:56:16.926Z,29.97
2022-12-12T00:58:46.372Z,32.73
2022-12-12T01:01:16.314Z,31.80
2022-12-12T01:03:44.421Z,32.83
2022-12-12T01:06:12.535Z,35.73
2022-12-12T01:08:41.588Z,33.50
2022-12-12T01:11:11.760Z,33.23
2022-12-12T01:13:41.437Z,33.77
2022-12-12T01:16:11.171Z,31.80
2022-12-12T01:18:40.642Z,34.10
2022-12-12T01:21:10.272Z,30.87
2022-12-12T01:23:38.534Z,32.50
2022-12-12T01:26:11.071Z,33.23
2022-12-12T01:28:39.215Z,30.20
2022-12-12T01:31:08.419Z,30.00
2022-12-12T01:33:38.238Z,30.30
2022-12-12T01:36:07.224Z,29.93
2022-12-12T01:38:35.218Z,33.60
2022-12-12T01:41:03.829Z,32.53
2022-12-12T01:43:31.883Z,33.27
2022-12-12T01:46:35.228Z,32.37
2022-12-12T01:49:12.934Z,31.70
2022-12-12T01:51:42.632Z,32.87
2022-12-12T01:54:15.394Z,36.20
2022-12-12T01:56:45.456Z,33.17
2022-12-12T01:59:16.927Z,32.27
2022-12-12T02:01:45.361Z,34.70
2022-12-12T02:04:15.364Z,36.43
2022-12-12T02:06:44.906Z,36.67
2022-12-12T02:09:15.093Z,33.43
2022-12-12T02:11:45.340Z,34.87
2022-12-12T02:14:17.611Z,30.03
2022-12-12T02:17:15.679Z,37.00
2022-12-12T02:20:29.919Z,33.30
2022-12-12T02:23:19.696Z,34.30
2022-12-12T02:26:26.059Z,32.53
2022-12-12T02:29:25.791Z,32.53
2022-12-12T02:32:03.361Z,31.70
2022-12-12T02:34:39.070Z,28.13
2022-12-12T02:37:11.535Z,32.80
2022-12-12T02:39:48.947Z,34.03
2022-12-12T02:42:28.170Z,33.13
2022-12-12T02:45:00.559Z,35.53
2022-12-12T02:47:32.477Z,32.80
2022-12-12T02:50:06.185Z,31.40
2022-12-12T02:52:34.532Z,31.33
2022-12-12T02:55:02.681Z,29.93
2022-12-12T02:57:30.677Z,28.73
2022-12-12T03:00:01.523Z,31.00
2022-12-12T03:03:19.545Z,31.90
2022-12-12T03:06:18.041Z,34.53
2022-12-12T03:09:00.385Z,29.90
2022-12-12T03:11:40.083Z,32.00
2022-12-12T03:14:15.027Z,32.70
2022-12-12T03:16:48.471Z,29.33
2022-12-12T03:19:25.472Z,29.83
2022-12-12T03:22:01.320Z,30.97
2022-12-12T03:24:33.975Z,28.63
2022-12-12T03:27:05.939Z,27.00
2022-12-12T03:29:39.344Z,29.47
2022-12-12T03:32:11.807Z,31.13
2022-12-12T03:34:44.710Z,27.73
2022-12-12T03:37:18.027Z,28.60
2022-12-12T03:39:51.029Z,30.33
2022-12-12T03:42:25.432Z,26.57
2022-12-12T03:44:59.057Z,28.23
2022-12-12T03:47:33.156Z,30.03
2022-12-12T03:50:07.294Z,27.90
2022-12-12T03:52:40.487Z,25.53
2022-12-12T03:55:13.417Z,27.00
2022-12-12T03:57:47.060Z,25.30
2022-12-12T04:00:17.032Z,24.70
2022-12-12T04:02:52.528Z,25.23
2022-12-12T04:05:25.341Z,23.87
2022-12-12T04:07:59.214Z,24.23
2022-12-12T04:10:47.531Z,24.33
2022-12-12T04:13:31.927Z,27.40
2022-12-12T04:16:05.367Z,23.40
2022-12-12T04:18:42.223Z,24.57
2022-12-12T04:21:48.754Z,23.73
2022-12-12T04:24:25.682Z,24.30
2022-12-12T04:27:00.098Z,24.77
2022-12-12T04:29:33.652Z,25.33
2022-12-12T04:32:09.937Z,25.30
2022-12-12T04:34:43.509Z,22.67
2022-12-12T04:37:16.879Z,23.20
2022-12-12T04:39:47.267Z,24.30
2022-12-12T04:42:22.642Z,24.27
2022-12-12T04:44:53.524Z,22.67
2022-12-12T04:47:23.048Z,23.50
2022-12-12T04:49:52.948Z,22.10
2022-12-12T04:52:23.550Z,21.63
2022-12-12T04:54:59.363Z,24.40
2022-12-12T04:57:32.585Z,24.47
2022-12-12T05:00:00.861Z,21.40
2022-12-12T05:02:38.253Z,21.73
2022-12-12T05:05:12.071Z,22.43
2022-12-12T05:07:44.112Z,19.03
2022-12-12T05:10:14.537Z,17.57
2022-12-12T05:12:45.732Z,19.27
2022-12-12T05:15:15.784Z,22.83
2022-12-12T05:17:46.646Z,22.77
2022-12-12T05:20:16.448Z,20.80
2022-12-12T05:22:45.843Z,21.67
2022-12-12T05:25:14.367Z,20.63
2022-12-12T05:27:42.671Z,22.67
2022-12-12T05:30:12.185Z,20.07
2022-12-12T05:32:40.237Z,20.37
2022-12-12T05:35:10.093Z,22.43
2022-12-12T05:37:38.620Z,20.53
2022-12-12T05:40:09.531Z,24.57
2022-12-12T05:42:37.499Z,22.37
2022-12-12T05:45:06.603Z,24.00
2022-12-12T05:47:34.608Z,23.47
2022-12-12T05:50:02.714Z,23.17
2022-12-12T05:52:30.856Z,23.50
2022-12-12T05:54:58.935Z,24.63
2022-12-12T05:57:28.467Z,25.53
2022-12-12T05:59:56.674Z,23.00
2022-12-12T06:02:24.781Z,25.03
2022-12-12T06:04:52.823Z,24.40
2022-12-12T06:07:20.903Z,24.50
2022-12-12T06:09:51.286Z,26.50
2022-12-12T06:12:19.267Z,23.57
2022-12-12T06:14:48.642Z,26.03
2022-12-12T06:17:18.887Z,26.40
2022-12-12T06:19:47.102Z,28.90
2022-12-12T06:22:15.098Z,23.37
2022-12-12T06:24:43.301Z,25.20
2022-12-12T06:27:11.312Z,24.03
2022-12-12T06:29:39.315Z,24.97
2022-12-12T06:32:08.758Z,23.20
2022-12-12T06:34:38.349Z,24.73
2022-12-12T06:37:10.666Z,26.07
2022-12-12T06:39:42.143Z,24.70
2022-12-12T06:42:10.432Z,24.77
2022-12-12T06:44:38.488Z,25.97
2022-12-12T06:47:09.095Z,26.00
2022-12-12T06:49:37.241Z,23.37
2022-12-12T06:52:05.560Z,22.47
2022-12-12T06:54:33.580Z,22.93
2022-12-12T06:57:01.599Z,24.30
2022-12-12T06:59:30.286Z,23.77
2022-12-12T07:01:58.684Z,22.83
2022-12-12T07:04:28.192Z,23.77
2022-12-12T07:06:56.187Z,23.20
2022-12-12T07:09:24.200Z,22.43
2022-12-12T07:11:52.179Z,23.97
2022-12-12T07:14:20.199Z,24.03
2022-12-12T07:16:48.167Z,22.17
2022-12-12T07:19:16.232Z,22.90
2022-12-12T07:21:45.560Z,23.70
2022-12-12T07:24:15.597Z,23.67
2022-12-12T07:26:44.364Z,25.77
2022-12-12T07:29:13.051Z,25.90
2022-12-12T07:31:41.059Z,23.87
2022-12-12T07:34:09.036Z,28.27
2022-12-12T07:36:37.024Z,26.50
2022-12-12T07:39:06.383Z,25.40
2022-12-12T07:41:34.557Z,24.67
2022-12-12T07:44:02.771Z,24.83
2022-12-12T07:46:30.784Z,26.27
2022-12-12T07:48:58.871Z,27.13
2022-12-12T07:51:26.926Z,27.17
2022-12-12T07:53:54.968Z,28.10
2022-12-12T07:56:24.323Z,27.10
2022-12-12T07:58:53.500Z,27.07
2022-12-12T08:01:23.422Z,28.87
2022-12-12T08:03:52.568Z,27.83
2022-12-12T08:06:22.528Z,28.37
2022-12-12T08:08:52.155Z,29.73
2022-12-12T08:11:21.965Z,27.77
2022-12-12T08:13:52.098Z,28.27
2022-12-12T08:16:22.543Z,30.83
2022-12-12T08:18:50.711Z,30.43
2022-12-12T08:21:25.300Z,30.10
2022-12-12T08:23:57.760Z,29.57
2022-12-12T08:26:27.044Z,31.87
2022-12-12T08:28:57.234Z,29.47
2022-12-12T08:31:25.646Z,34.20
2022-12-12T08:33:54.155Z,31.67
2022-12-12T08:36:24.062Z,32.37
2022-12-12T08:38:52.808Z,32.90
2022-12-12T08:41:21.428Z,34.00
2022-12-12T08:43:50.634Z,36.07
2022-12-12T08:46:20.843Z,32.90
2022-12-12T08:48:49.637Z,36.60
2022-12-12T08:51:18.370Z,36.47
2022-12-12T08:53:46.897Z,36.00
2022-12-12T08:56:15.076Z,33.23
2022-12-12T08:58:43.470Z,36.87
2022-12-12T09:01:12.395Z,34.90
2022-12-12T09:03:41.803Z,33.47
2022-12-12T09:06:12.304Z,32.50
2022-12-12T09:08:40.358Z,34.17
2022-12-12T09:11:10.531Z,32.00
2022-12-12T09:13:39.888Z,34.10
2022-12-12T09:16:11.870Z,33.83
2022-12-12T09:18:48.034Z,33.23
2022-12-12T09:21:17.047Z,33.97
2022-12-12T09:23:45.420Z,31.70
2022-12-12T09:26:13.862Z,32.33
2022-12-12T09:28:42.510Z,32.43
2022-12-12T09:31:13.331Z,30.50
2022-12-12T09:33:43.355Z,31.80
2022-12-12T09:36:13.597Z,32.13
2022-12-12T09:38:41.849Z,32.20
2022-12-12T09:41:15.301Z,33.20
2022-12-12T09:43:51.449Z,33.07
2022-12-12T09:46:28.725Z,33.03
2022-12-12T09:49:14.148Z,33.77
2022-12-12T09:51:43.444Z,31.07
2022-12-12T09:54:15.679Z,32.67
2022-12-12T09:56:56.532Z,31.47
2022-12-12T09:59:33.593Z,33.30
2022-12-12T10:02:16.771Z,32.30
2022-12-12T10:04:59.289Z,31.43
2022-12-12T10:07:38.839Z,29.87
2022-12-12T10:10:18.395Z,30.10
2022-12-12T10:12:47.784Z,31.10
2022-12-12T10:15:29.896Z,32.27
2022-12-12T10:18:01.077Z,31.87
2022-12-12T10:20:32.366Z,31.50
2022-12-12T10:23:05.253Z,32.90
2022-12-12T10:25:42.005Z,34.40
2022-12-12T10:28:15.159Z,36.53
2022-12-12T10:30:58.600Z,34.57
2022-12-12T10:33:35.352Z,36.43
2022-12-12T10:36:19.529Z,39.20
2022-12-12T10:39:03.384Z,37.80
2022-12-12T10:41:39.525Z,39.00
2022-12-12T10:44:18.880Z,38.17
2022-12-12T10:46:50.787Z,36.27
2022-12-12T10:49:20.457Z,37.17
2022-12-12T10:51:51.167Z,37.70
2022-12-12T10:54:22.699Z,35.17
2022-12-12T10:57:20.233Z,34.30
2022-12-12T10:59:50.120Z,39.80
2022-12-12T11:02:29.926Z,37.53
2022-12-12T11:05:07.912Z,35.40
2022-12-12T11:07:40.412Z,35.97
2022-12-12T11:10:30.569Z,34.87
2022-12-12T11:13:03.374Z,36.30
2022-12-12T11:15:39.821Z,34.00
2022-12-12T11:18:14.384Z,34.30
2022-12-12T11:20:47.566Z,30.20
2022-12-12T11:23:20.883Z,32.07
2022-12-12T11:25:56.564Z,31.97
2022-12-12T11:28:26.529Z,32.83
2022-12-12T11:30:57.040Z,33.03
2022-12-12T11:33:35.585Z,32.07
2022-12-12T11:36:06.878Z,35.30
2022-12-12T11:38:41.258Z,33.57
2022-12-12T11:41:11.891Z,32.37
2022-12-12T11:43:55.150Z,33.30
2022-12-12T11:46:29.107Z,32.90
2022-12-12T11:49:00.382Z,32.73
2022-12-12T11:51:40.017Z,31.70
2022-12-12T11:54:14.509Z,32.73
2022-12-12T11:56:50.223Z,33.57
2022-12-12T11:59:41.083Z,31.20
2022-12-12T12:02:38.388Z,34.53
2022-12-12T12:05:15.697Z,37.67
2022-12-12T12:08:00.641Z,32.73
2022-12-12T12:10:53.320Z,34.13
2022-12-12T12:13:37.348Z,35.27
2022-12-12T12:16:13.199Z,37.33
2022-12-12T12:18:55.363Z,35.53
2022-12-12T12:21:38.350Z,35.47
2022-12-12T12:24:23.279Z,38.07
2022-12-12T12:27:00.925Z,30.33
2022-12-12T12:29:44.406Z,32.27
2022-12-12T12:32:22.492Z,32.67
2022-12-12T12:35:04.227Z,30.63
2022-12-12T12:37:44.360Z,31.63
2022-12-12T12:40:28.055Z,30.57
2022-12-12T12:43:12.540Z,32.70
2022-12-12T12:45:46.458Z,33.37
2022-12-12T12:48:21.265Z,29.97
2022-12-12T12:50:53.472Z,31.87
2022-12-12T12:53:32.928Z,31.57
2022-12-12T12:56:06.104Z,31.80
2022-12-12T12:58:41.774Z,31.90
2022-12-12T13:01:14.734Z,31.43
2022-12-12T13:03:49.014Z,31.77
2022-12-12T13:06:21.846Z,32.87
2022-12-12T13:08:59.224Z,28.50
2022-12-12T13:11:32.983Z,29.70
2022-12-12T13:14:13.499Z,31.27
2022-12-12T13:16:43.488Z,29.60
2022-12-12T13:19:17.763Z,30.20
2022-12-12T13:21:50.526Z,28.23
2022-12-12T13:24:23.952Z,31.77
2022-12-12T13:27:01.536Z,30.07
2022-12-12T13:29:49.080Z,28.57
2022-12-12T13:33:00.821Z,31.40
2022-12-12T13:35:32.196Z,27.57
2022-12-12T13:38:01.089Z,31.33
2022-12-12T13:40:33.272Z,29.47
2022-12-12T13:43:09.441Z,31.23
2022-12-12T13:45:45.124Z,32.20
2022-12-12T13:48:48.221Z,31.73
2022-12-12T13:51:44.175Z,31.23
2022-12-12T13:54:51.392Z,29.73
2022-12-12T13:57:32.484Z,29.43
2022-12-12T14:00:31.184Z,31.37
2022-12-12T14:03:05.861Z,30.23
2022-12-12T14:05:37.082Z,31.83
2022-12-12T14:08:21.475Z,30.60
2022-12-12T14:10:56.393Z,28.30
2022-12-12T14:13:34.631Z,32.37
2022-12-12T14:16:06.831Z,30.20
2022-12-12T14:18:39.767Z,30.53
2022-12-12T14:21:11.091Z,34.23
2022-12-12T14:23:42.290Z,28.83
2022-12-12T14:26:48.006Z,30.13
2022-12-12T14:29:27.768Z,28.97
2022-12-12T14:32:10.370Z,32.30
2022-12-12T14:34:47.379Z,30.30
2022-12-12T14:37:37.380Z,32.97
2022-12-12T14:40:13.958Z,31.83
2022-12-12T14:43:19.523Z,30.13
2022-12-12T14:45:38.791Z,31.97
2022-12-12T14:48:28.636Z,30.17
2022-12-12T14:51:09.594Z,32.73
2022-12-12T14:53:48.272Z,28.80
2022-12-12T14:56:19.044Z,30.27
2022-12-12T14:58:50.564Z,31.87
2022-12-12T15:01:27.984Z,32.40
2022-12-12T15:03:56.191Z,30.40
2022-12-12T15:06:37.652Z,29.23
2022-12-12T15:09:21.072Z,29.27
2022-12-12T15:11:50.150Z,37.70
2022-12-12T15:14:23.920Z,32.43
2022-12-12T15:16:56.432Z,32.33
2022-12-12T15:19:31.545Z,32.63
2022-12-12T15:22:01.144Z,32.60
2022-12-12T15:24:31.109Z,32.53
2022-12-12T15:27:00.636Z,36.80
2022-12-12T15:29:30.740Z,33.33
2022-12-12T15:32:02.527Z,37.47
2022-12-12T15:34:40.180Z,33.80
2022-12-12T15:37:20.480Z,35.23
2022-12-12T15:39:59.550Z,34.03
2022-12-12T15:42:28.092Z,37.73
2022-12-12T15:44:56.528Z,35.67
2022-12-12T15:47:25.991Z,34.37
2022-12-12T15:49:54.728Z,37.67
2022-12-12T15:52:27.789Z,37.93
2022-12-12T15:54:58.651Z,35.47
2022-12-12T15:57:28.333Z,37.40
2022-12-12T15:59:58.890Z,38.27
2022-12-12T16:02:29.035Z,37.77
2022-12-12T16:05:01.949Z,38.37
2022-12-12T16:07:36.540Z,37.40
2022-12-12T16:10:21.001Z,35.97
2022-12-12T16:13:06.944Z,41.07
2022-12-12T16:15:37.363Z,40.10
2022-12-12T16:18:17.754Z,35.23
2022-12-12T16:20:48.726Z,39.17
2022-12-12T16:23:29.976Z,38.70
2022-12-12T16:25:58.872Z,39.60
2022-12-12T16:28:29.506Z,40.10
2022-12-12T16:31:01.349Z,41.00
2022-12-12T16:33:31.898Z,43.53
2022-12-12T16:36:03.106Z,41.20
2022-12-12T16:38:33.450Z,41.60
2022-12-12T16:41:04.910Z,42.93
2022-12-12T16:43:33.400Z,42.17
2022-12-12T16:46:04.281Z,45.00
2022-12-12T16:48:35.212Z,40.67
2022-12-12T16:51:06.474Z,42.10
2022-12-12T16:53:37.938Z,44.47
2022-12-12T16:56:06.599Z,39.07
2022-12-12T16:58:34.737Z,40.83
2022-12-12T17:01:02.942Z,42.10
2022-12-12T17:03:32.543Z,45.90
2022-12-12T17:06:01.050Z,43.67
2022-12-12T17:08:29.658Z,44.67
2022-12-12T17:11:10.015Z,43.03
2022-12-12T17:13:40.400Z,41.03
2022-12-12T17:16:08.762Z,41.97
2022-12-12T17:18:36.841Z,44.63
2022-12-12T17:21:04.967Z,41.27
2022-12-12T17:23:33.181Z,40.43
2022-12-12T17:26:05.165Z,45.63
2022-12-12T17:28:35.057Z,48.87
2022-12-12T17:31:04.200Z,40.83
2022-12-12T17:33:32.237Z,38.70
2022-12-12T17:36:01.630Z,36.57
2022-12-12T17:38:30.307Z,42.63
2022-12-12T17:40:59.482Z,41.07
2022-12-12T17:43:30.062Z,37.73
2022-12-12T17:45:59.697Z,38.40
2022-12-12T17:48:31.016Z,36.30
2022-12-12T17:51:00.408Z,36.00
2022-12-12T17:53:32.468Z,36.37
2022-12-12T17:56:00.890Z,36.43
2022-12-12T17:58:33.263Z,38.03
2022-12-12T18:01:01.884Z,36.13
2022-12-12T18:03:30.532Z,34.23
2022-12-12T18:06:01.557Z,37.47
2022-12-12T18:08:32.689Z,40.50
2022-12-12T18:11:01.195Z,37.10
2022-12-12T18:13:30.551Z,41.63
2022-12-12T18:16:00.078Z,38.50
2022-12-12T18:18:29.780Z,40.00
2022-12-12T18:20:57.797Z,44.10
2022-12-12T18:23:25.795Z,44.60
2022-12-12T18:25:53.833Z,43.10
2022-12-12T18:28:21.836Z,43.60
2022-12-12T18:30:52.466Z,42.93
2022-12-12T18:33:20.450Z,43.47
2022-12-12T18:35:48.427Z,44.83
2022-12-12T18:38:17.520Z,43.10
2022-12-12T18:40:48.300Z,44.43
2022-12-12T18:43:16.311Z,40.87
2022-12-12T18:45:44.371Z,43.70
2022-12-12T18:48:13.776Z,38.23
2022-12-12T18:50:41.772Z,46.47
2022-12-12T18:53:13.101Z,45.30
2022-12-12T18:55:43.315Z,45.20
2022-12-12T18:58:12.290Z,45.07
2022-12-12T19:00:40.980Z,45.63
2022-12-12T19:03:09.526Z,50.37
2022-12-12T19:05:43.244Z,51.47
2022-12-12T19:08:12.039Z,51.30
2022-12-12T19:10:40.861Z,45.73
2022-12-12T19:13:08.855Z,45.60
2022-12-12T19:15:36.860Z,43.77
2022-12-12T19:18:05.240Z,45.40
2022-12-12T19:20:33.271Z,46.80
2022-12-12T19:23:02.641Z,46.87
2022-12-12T19:25:30.911Z,50.70
2022-12-12T19:27:59.768Z,47.50
2022-12-12T19:30:29.311Z,44.97
2022-12-12T19:32:57.415Z,44.00
2022-12-12T19:35:25.531Z,47.87
2022-12-12T19:37:53.594Z,48.13
2022-12-12T19:40:25.498Z,43.43
2022-12-12T19:42:53.603Z,43.30
2022-12-12T19:45:24.197Z,41.43
2022-12-12T19:47:52.216Z,41.50
2022-12-12T19:50:20.294Z,38.87
2022-12-12T19:52:51.150Z,32.07
2022-12-12T19:55:19.414Z,29.67
2022-12-12T19:57:48.818Z,25.57
2022-12-12T20:00:19.809Z,21.17
2022-12-12T20:02:47.939Z,20.57
2022-12-12T20:05:16.066Z,20.23
2022-12-12T20:07:44.126Z,19.50
2022-12-12T20:10:13.268Z,18.27
2022-12-12T20:12:51.859Z,18.03
2022-12-12T20:15:25.680Z,15.33
2022-12-12T20:17:53.676Z,13.10
2022-12-12T20:20:21.680Z,15.00
2022-12-12T20:22:49.949Z,13.23
2022-12-12T20:25:18.220Z,14.13
2022-12-12T20:27:46.228Z,14.53
2022-12-12T20:30:15.091Z,13.87
2022-12-12T20:32:44.632Z,13.97
2022-12-12T20:35:13.022Z,14.50
2022-12-12T20:37:41.065Z,15.67
2022-12-12T20:40:10.294Z,15.07
2022-12-12T20:42:38.541Z,16.37
2022-12-12T20:45:12.347Z,15.37
2022-12-12T20:47:40.585Z,16.40
2022-12-12T20:50:10.715Z,14.20
2022-12-12T20:52:39.636Z,17.67
2022-12-12T20:55:09.174Z,17.17
2022-12-12T20:57:37.901Z,15.83
2022-12-12T21:00:07.244Z,15.10
2022-12-12T21:02:35.313Z,16.03
2022-12-12T21:05:05.570Z,14.57
2022-12-12T21:07:34.981Z,17.27
2022-12-12T21:10:03.060Z,15.73
2022-12-12T21:12:31.277Z,13.60
2022-12-12T21:15:14.457Z,14.77
2022-12-12T21:17:42.634Z,15.67
2022-12-12T21:20:12.418Z,17.03
2022-12-12T21:22:41.972Z,17.37
2022-12-12T21:25:13.661Z,17.77
2022-12-12T21:27:41.935Z,17.93
2022-12-12T21:30:11.466Z,21.60
2022-12-12T21:32:39.484Z,19.90
2022-12-12T21:35:08.432Z,20.40
2022-12-12T21:37:40.390Z,19.83
2022-12-12T21:40:11.898Z,19.23
2022-12-12T21:42:39.942Z,22.87
2022-12-12T21:45:11.582Z,20.53
2022-12-12T21:47:39.831Z,18.77
2022-12-12T21:50:09.132Z,20.27
2022-12-12T21:52:37.180Z,19.90
2022-12-12T21:55:05.599Z,21.83
2022-12-12T21:57:34.978Z,23.10
2022-12-12T22:00:03.233Z,21.47
2022-12-12T22:02:31.262Z,20.00
2022-12-12T22:04:59.287Z,19.27
2022-12-12T22:07:27.253Z,19.03
2022-12-12T22:09:58.113Z,16.43
2022-12-12T22:12:40.010Z,18.77
2022-12-12T22:15:08.565Z,17.40
2022-12-12T22:17:36.563Z,18.70
2022-12-12T22:20:05.129Z,17.70
2022-12-12T22:22:33.124Z,18.87
2022-12-12T22:25:01.424Z,21.57
2022-12-12T22:27:29.389Z,21.17
2022-12-12T22:29:58.744Z,21.30
2022-12-12T22:32:28.428Z,19.37
2022-12-12T22:34:58.275Z,20.80
2022-12-12T22:37:26.357Z,20.20
2022-12-12T22:39:54.350Z,17.23
2022-12-12T22:42:22.337Z,19.33
2022-12-12T22:44:50.349Z,20.53
2022-12-12T22:47:19.737Z,17.93
2022-12-12T22:49:47.746Z,17.07
2022-12-12T22:52:15.737Z,18.63
2022-12-12T22:54:43.716Z,20.23
2022-12-12T22:57:11.723Z,16.93
2022-12-12T22:59:39.849Z,18.33
2022-12-12T23:02:08.140Z,18.63
2022-12-12T23:04:37.668Z,15.90
2022-12-12T23:07:06.727Z,17.07
2022-12-12T23:09:34.902Z,18.87
2022-12-12T23:12:02.880Z,17.70
2022-12-12T23:14:31.548Z,16.47
2022-12-12T23:16:59.541Z,17.27
2022-12-12T23:19:28.890Z,15.50
2022-12-12T23:21:58.262Z,15.97
2022-12-12T23:24:26.394Z,17.03
2022-12-12T23:26:54.412Z,14.30
2022-12-12T23:29:23.175Z,15.50
2022-12-12T23:31:51.487Z,13.30
2022-12-12T23:34:23.150Z,16.37
2022-12-12T23:36:51.787Z,15.03
2022-12-12T23:39:21.735Z,16.37
2022-12-12T23:41:49.987Z,15.57
2022-12-12T23:44:20.546Z,14.57
2022-12-12T23:46:51.628Z,15.57
2022-12-12T23:49:21.155Z,19.33
2022-12-12T23:51:50.919Z,14.93
2022-12-12T23:54:22.091Z,16.20
2022-12-12T23:56:51.148Z,15.33
2022-12-12T23:59:21.640Z,13.47
